Portada
METAR-TAF:

METAR-TAF

Aeroports :

Biak, Indonèsia

latitud: 01-11S, longitud: 136-07E, altitud: 11 m

METAR: manca

Hora: 17:19 (10:19 UTC)

Pronòstic

L'informe es va fer fa 5 hores i 19 minuts, a les 05:00 UTC
Pronòstic vàlid del 08 a les 06 UTC al 09 a les 12 UTC
Vent 8 kt del Oest
Visibilitat 10 km o més
Núvols disperses a una alçada de 1800 ft
Evolucionant progressivament
l' 08 a les 10 UTC al 08 a les 12 UTC
Vent 3 kt del Nord-Oest

TAF: WABB 080500Z 0806/0912 27008KT 9999 SCT018 BECMG 0810/0812 32003KT

Observacions i pronòstics meteorològics de més de 4000 aeroports (METAR i TAF).

Les estacions disponibles són els punts grocs i vermells al mapa.

Posi el ratolí al punt desitjat per veure el nom de l'estació.

Feu clic per veure les observacions i els pronòstics meteorològics.

Per canviar el mapa: feu clic els botons verds amb una creu de color negre per apropar; al botó verd amb un guió per allunyar la imatge; o en les fletxes verdes per a mapes adjacents.


METAR-TAF: